sensor_id;sensor_type;location;lat;lon;timestamp;P1;durP1;ratioP1;P2;durP2;ratioP2
68940;SDS011;55982;51.476;7.552;2023-04-15T00:00:52;15.75;;;8.15;;
68940;SDS011;55982;51.476;7.552;2023-04-15T00:03:18;15.90;;;9.35;;
68940;SDS011;55982;51.476;7.552;2023-04-15T00:05:43;16.73;;;9.40;;
68940;SDS011;55982;51.476;7.552;2023-04-15T00:08:09;18.30;;;10.77;;
68940;SDS011;55982;51.476;7.552;2023-04-15T00:10:34;17.80;;;10.32;;
68940;SDS011;55982;51.476;7.552;2023-04-15T00:13:00;24.25;;;11.43;;
68940;SDS011;55982;51.476;7.552;2023-04-15T00:15:26;22.85;;;11.45;;
68940;SDS011;55982;51.476;7.552;2023-04-15T00:17:51;19.73;;;10.95;;
68940;SDS011;55982;51.476;7.552;2023-04-15T00:20:17;21.23;;;11.55;;
68940;SDS011;55982;51.476;7.552;2023-04-15T00:22:42;23.08;;;11.52;;
68940;SDS011;55982;51.476;7.552;2023-04-15T00:25:07;21.85;;;12.30;;
68940;SDS011;55982;51.476;7.552;2023-04-15T00:27:33;21.35;;;11.45;;
68940;SDS011;55982;51.476;7.552;2023-04-15T00:29:58;21.63;;;12.68;;
68940;SDS011;55982;51.476;7.552;2023-04-15T00:32:24;25.88;;;12.18;;
68940;SDS011;55982;51.476;7.552;2023-04-15T00:34:49;27.83;;;12.80;;
68940;SDS011;55982;51.476;7.552;2023-04-15T00:37:15;22.15;;;13.00;;
68940;SDS011;55982;51.476;7.552;2023-04-15T00:39:40;24.90;;;13.52;;
68940;SDS011;55982;51.476;7.552;2023-04-15T00:42:06;25.25;;;13.75;;
68940;SDS011;55982;51.476;7.552;2023-04-15T00:44:31;24.60;;;13.75;;
68940;SDS011;55982;51.476;7.552;2023-04-15T00:46:59;30.77;;;14.38;;
68940;SDS011;55982;51.476;7.552;2023-04-15T00:49:26;24.77;;;13.45;;
68940;SDS011;55982;51.476;7.552;2023-04-15T00:51:53;29.50;;;14.48;;
68940;SDS011;55982;51.476;7.552;2023-04-15T00:54:18;24.10;;;13.48;;
68940;SDS011;55982;51.476;7.552;2023-04-15T00:56:43;25.50;;;13.23;;
68940;SDS011;55982;51.476;7.552;2023-04-15T00:59:09;29.63;;;14.40;;
68940;SDS011;55982;51.476;7.552;2023-04-15T01:01:35;26.08;;;13.93;;
68940;SDS011;55982;51.476;7.552;2023-04-15T01:04:01;25.92;;;14.23;;
68940;SDS011;55982;51.476;7.552;2023-04-15T01:06:27;22.85;;;13.05;;
68940;SDS011;55982;51.476;7.552;2023-04-15T01:08:53;26.05;;;14.35;;
68940;SDS011;55982;51.476;7.552;2023-04-15T01:11:20;26.52;;;14.93;;
68940;SDS011;55982;51.476;7.552;2023-04-15T01:13:46;28.15;;;15.10;;
68940;SDS011;55982;51.476;7.552;2023-04-15T01:16:12;27.40;;;13.93;;
68940;SDS011;55982;51.476;7.552;2023-04-15T01:18:38;25.60;;;14.45;;
68940;SDS011;55982;51.476;7.552;2023-04-15T01:21:04;27.60;;;13.85;;
68940;SDS011;55982;51.476;7.552;2023-04-15T01:23:30;26.00;;;14.77;;
68940;SDS011;55982;51.476;7.552;2023-04-15T01:25:56;26.30;;;15.10;;
68940;SDS011;55982;51.476;7.552;2023-04-15T01:28:23;30.85;;;15.40;;
68940;SDS011;55982;51.476;7.552;2023-04-15T01:30:49;26.52;;;14.80;;
68940;SDS011;55982;51.476;7.552;2023-04-15T01:33:15;31.77;;;15.30;;
68940;SDS011;55982;51.476;7.552;2023-04-15T01:35:40;24.70;;;14.50;;
68940;SDS011;55982;51.476;7.552;2023-04-15T01:38:08;26.83;;;15.10;;
68940;SDS011;55982;51.476;7.552;2023-04-15T01:40:35;30.85;;;14.65;;
68940;SDS011;55982;51.476;7.552;2023-04-15T01:43:01;29.13;;;14.85;;
68940;SDS011;55982;51.476;7.552;2023-04-15T01:45:26;26.45;;;14.48;;
68940;SDS011;55982;51.476;7.552;2023-04-15T01:47:52;32.72;;;14.95;;
68940;SDS011;55982;51.476;7.552;2023-04-15T01:50:18;30.55;;;15.43;;
68940;SDS011;55982;51.476;7.552;2023-04-15T01:52:44;27.00;;;14.75;;
68940;SDS011;55982;51.476;7.552;2023-04-15T01:55:11;28.73;;;13.63;;
68940;SDS011;55982;51.476;7.552;2023-04-15T01:57:37;28.35;;;14.35;;
68940;SDS011;55982;51.476;7.552;2023-04-15T02:00:02;30.63;;;14.48;;
68940;SDS011;55982;51.476;7.552;2023-04-15T02:02:28;26.88;;;13.85;;
68940;SDS011;55982;51.476;7.552;2023-04-15T02:04:54;30.63;;;14.48;;
68940;SDS011;55982;51.476;7.552;2023-04-15T02:07:20;24.48;;;13.88;;
68940;SDS011;55982;51.476;7.552;2023-04-15T02:09:45;23.42;;;13.75;;
68940;SDS011;55982;51.476;7.552;2023-04-15T02:12:11;26.88;;;14.60;;
68940;SDS011;55982;51.476;7.552;2023-04-15T02:14:37;34.22;;;15.77;;
68940;SDS011;55982;51.476;7.552;2023-04-15T02:17:02;27.60;;;14.63;;
68940;SDS011;55982;51.476;7.552;2023-04-15T02:19:31;27.98;;;15.32;;
68940;SDS011;55982;51.476;7.552;2023-04-15T02:21:57;26.92;;;15.25;;
68940;SDS011;55982;51.476;7.552;2023-04-15T02:24:24;26.60;;;15.50;;
68940;SDS011;55982;51.476;7.552;2023-04-15T02:26:49;31.33;;;15.73;;
68940;SDS011;55982;51.476;7.552;2023-04-15T02:29:15;28.55;;;15.38;;
68940;SDS011;55982;51.476;7.552;2023-04-15T02:31:40;30.63;;;15.60;;
68940;SDS011;55982;51.476;7.552;2023-04-15T02:34:06;26.50;;;15.27;;
68940;SDS011;55982;51.476;7.552;2023-04-15T02:36:32;28.70;;;16.33;;
68940;SDS011;55982;51.476;7.552;2023-04-15T02:38:58;33.08;;;16.88;;
68940;SDS011;55982;51.476;7.552;2023-04-15T02:41:24;29.58;;;15.68;;
68940;SDS011;55982;51.476;7.552;2023-04-15T02:43:51;30.85;;;16.27;;
68940;SDS011;55982;51.476;7.552;2023-04-15T02:46:17;29.67;;;15.77;;
68940;SDS011;55982;51.476;7.552;2023-04-15T02:48:42;33.33;;;15.88;;
68940;SDS011;55982;51.476;7.552;2023-04-15T02:51:28;30.33;;;17.38;;
68940;SDS011;55982;51.476;7.552;2023-04-15T02:53:55;37.10;;;18.35;;
68940;SDS011;55982;51.476;7.552;2023-04-15T02:56:20;36.97;;;19.27;;
68940;SDS011;55982;51.476;7.552;2023-04-15T02:58:47;33.60;;;18.00;;
68940;SDS011;55982;51.476;7.552;2023-04-15T03:01:14;41.60;;;19.00;;
68940;SDS011;55982;51.476;7.552;2023-04-15T03:03:40;37.13;;;20.15;;
68940;SDS011;55982;51.476;7.552;2023-04-15T03:06:05;40.83;;;20.25;;
68940;SDS011;55982;51.476;7.552;2023-04-15T03:08:30;38.58;;;18.83;;
68940;SDS011;55982;51.476;7.552;2023-04-15T03:10:57;38.72;;;19.27;;
68940;SDS011;55982;51.476;7.552;2023-04-15T03:13:24;38.65;;;18.42;;
68940;SDS011;55982;51.476;7.552;2023-04-15T03:15:50;33.15;;;18.92;;
68940;SDS011;55982;51.476;7.552;2023-04-15T03:18:16;32.33;;;17.85;;
68940;SDS011;55982;51.476;7.552;2023-04-15T03:20:41;32.30;;;18.55;;
68940;SDS011;55982;51.476;7.552;2023-04-15T03:23:06;39.42;;;19.30;;
68940;SDS011;55982;51.476;7.552;2023-04-15T03:25:32;39.65;;;19.17;;
68940;SDS011;55982;51.476;7.552;2023-04-15T03:27:58;38.58;;;19.25;;
68940;SDS011;55982;51.476;7.552;2023-04-15T03:30:24;38.45;;;19.77;;
68940;SDS011;55982;51.476;7.552;2023-04-15T03:32:49;40.95;;;20.60;;
68940;SDS011;55982;51.476;7.552;2023-04-15T03:35:15;37.30;;;19.75;;
68940;SDS011;55982;51.476;7.552;2023-04-15T03:37:40;39.15;;;18.90;;
68940;SDS011;55982;51.476;7.552;2023-04-15T03:40:06;42.22;;;21.00;;
68940;SDS011;55982;51.476;7.552;2023-04-15T03:42:32;37.88;;;20.45;;
68940;SDS011;55982;51.476;7.552;2023-04-15T03:44:57;43.88;;;21.95;;
68940;SDS011;55982;51.476;7.552;2023-04-15T03:47:22;40.00;;;20.80;;
68940;SDS011;55982;51.476;7.552;2023-04-15T03:49:48;41.13;;;20.25;;
68940;SDS011;55982;51.476;7.552;2023-04-15T03:52:13;41.95;;;20.30;;
68940;SDS011;55982;51.476;7.552;2023-04-15T03:54:38;47.40;;;21.92;;
68940;SDS011;55982;51.476;7.552;2023-04-15T03:57:04;49.95;;;22.92;;
68940;SDS011;55982;51.476;7.552;2023-04-15T03:59:29;50.70;;;25.70;;
68940;SDS011;55982;51.476;7.552;2023-04-15T04:01:55;51.95;;;26.23;;
68940;SDS011;55982;51.476;7.552;2023-04-15T04:04:20;52.88;;;24.17;;
68940;SDS011;55982;51.476;7.552;2023-04-15T04:06:45;53.05;;;24.67;;
68940;SDS011;55982;51.476;7.552;2023-04-15T04:09:11;60.42;;;28.60;;
68940;SDS011;55982;51.476;7.552;2023-04-15T04:11:36;53.83;;;27.55;;
68940;SDS011;55982;51.476;7.552;2023-04-15T04:14:01;59.80;;;28.98;;
68940;SDS011;55982;51.476;7.552;2023-04-15T04:16:27;59.17;;;28.80;;
68940;SDS011;55982;51.476;7.552;2023-04-15T04:18:52;53.70;;;28.20;;
68940;SDS011;55982;51.476;7.552;2023-04-15T04:21:17;50.13;;;26.92;;
68940;SDS011;55982;51.476;7.552;2023-04-15T04:23:43;60.75;;;28.15;;
68940;SDS011;55982;51.476;7.552;2023-04-15T04:26:09;55.22;;;27.20;;
68940;SDS011;55982;51.476;7.552;2023-04-15T04:28:34;54.60;;;27.73;;
68940;SDS011;55982;51.476;7.552;2023-04-15T04:31:00;53.70;;;27.42;;
68940;SDS011;55982;51.476;7.552;2023-04-15T04:33:26;53.00;;;26.17;;
68940;SDS011;55982;51.476;7.552;2023-04-15T04:35:51;50.63;;;26.75;;
68940;SDS011;55982;51.476;7.552;2023-04-15T04:38:16;54.65;;;28.02;;
68940;SDS011;55982;51.476;7.552;2023-04-15T04:40:42;51.85;;;27.50;;
68940;SDS011;55982;51.476;7.552;2023-04-15T04:43:07;65.32;;;30.90;;
68940;SDS011;55982;51.476;7.552;2023-04-15T04:45:33;64.30;;;29.73;;
68940;SDS011;55982;51.476;7.552;2023-04-15T04:47:58;68.05;;;31.55;;
68940;SDS011;55982;51.476;7.552;2023-04-15T04:50:24;64.20;;;32.97;;
68940;SDS011;55982;51.476;7.552;2023-04-15T04:52:49;56.97;;;28.45;;
68940;SDS011;55982;51.476;7.552;2023-04-15T04:55:15;55.67;;;28.08;;
68940;SDS011;55982;51.476;7.552;2023-04-15T04:57:40;55.70;;;27.65;;
68940;SDS011;55982;51.476;7.552;2023-04-15T05:00:06;51.10;;;26.95;;
68940;SDS011;55982;51.476;7.552;2023-04-15T05:02:32;48.92;;;24.83;;
68940;SDS011;55982;51.476;7.552;2023-04-15T05:04:58;46.88;;;24.10;;
68940;SDS011;55982;51.476;7.552;2023-04-15T05:07:24;51.25;;;26.17;;
68940;SDS011;55982;51.476;7.552;2023-04-15T05:09:49;48.50;;;24.65;;
68940;SDS011;55982;51.476;7.552;2023-04-15T05:12:16;43.83;;;23.98;;
68940;SDS011;55982;51.476;7.552;2023-04-15T05:14:42;42.88;;;23.40;;
68940;SDS011;55982;51.476;7.552;2023-04-15T05:17:08;42.88;;;22.85;;
68940;SDS011;55982;51.476;7.552;2023-04-15T05:19:33;47.78;;;23.65;;
68940;SDS011;55982;51.476;7.552;2023-04-15T05:21:59;47.67;;;24.35;;
68940;SDS011;55982;51.476;7.552;2023-04-15T05:24:24;44.72;;;23.65;;
68940;SDS011;55982;51.476;7.552;2023-04-15T05:26:50;44.58;;;23.75;;
68940;SDS011;55982;51.476;7.552;2023-04-15T05:29:15;43.90;;;23.83;;
68940;SDS011;55982;51.476;7.552;2023-04-15T05:31:41;42.05;;;23.15;;
68940;SDS011;55982;51.476;7.552;2023-04-15T05:34:07;45.90;;;22.95;;
68940;SDS011;55982;51.476;7.552;2023-04-15T05:36:32;50.40;;;26.75;;
68940;SDS011;55982;51.476;7.552;2023-04-15T05:38:58;45.03;;;25.35;;
68940;SDS011;55982;51.476;7.552;2023-04-15T05:41:23;47.67;;;24.98;;
68940;SDS011;55982;51.476;7.552;2023-04-15T05:43:49;47.33;;;25.73;;
68940;SDS011;55982;51.476;7.552;2023-04-15T05:46:14;44.42;;;26.13;;
68940;SDS011;55982;51.476;7.552;2023-04-15T05:48:39;43.22;;;24.35;;
68940;SDS011;55982;51.476;7.552;2023-04-15T05:51:05;42.30;;;23.13;;
68940;SDS011;55982;51.476;7.552;2023-04-15T05:53:30;38.00;;;23.02;;
68940;SDS011;55982;51.476;7.552;2023-04-15T05:55:56;41.55;;;24.73;;
68940;SDS011;55982;51.476;7.552;2023-04-15T05:58:21;40.30;;;24.05;;
68940;SDS011;55982;51.476;7.552;2023-04-15T06:00:47;35.15;;;21.10;;
68940;SDS011;55982;51.476;7.552;2023-04-15T06:03:12;38.22;;;21.27;;
68940;SDS011;55982;51.476;7.552;2023-04-15T06:05:37;36.72;;;21.48;;
68940;SDS011;55982;51.476;7.552;2023-04-15T06:08:03;36.75;;;20.80;;
68940;SDS011;55982;51.476;7.552;2023-04-15T06:10:28;32.92;;;20.15;;
68940;SDS011;55982;51.476;7.552;2023-04-15T06:12:54;33.92;;;20.02;;
68940;SDS011;55982;51.476;7.552;2023-04-15T06:15:20;33.22;;;20.45;;
68940;SDS011;55982;51.476;7.552;2023-04-15T06:17:45;35.08;;;20.85;;
68940;SDS011;55982;51.476;7.552;2023-04-15T06:20:11;36.60;;;21.75;;
68940;SDS011;55982;51.476;7.552;2023-04-15T06:22:36;32.17;;;19.55;;
68940;SDS011;55982;51.476;7.552;2023-04-15T06:25:03;39.90;;;20.20;;
68940;SDS011;55982;51.476;7.552;2023-04-15T06:27:29;35.22;;;19.30;;
68940;SDS011;55982;51.476;7.552;2023-04-15T06:29:54;29.33;;;18.60;;
68940;SDS011;55982;51.476;7.552;2023-04-15T06:32:20;28.02;;;18.02;;
68940;SDS011;55982;51.476;7.552;2023-04-15T06:34:45;32.90;;;20.13;;
68940;SDS011;55982;51.476;7.552;2023-04-15T06:37:10;31.90;;;19.63;;
68940;SDS011;55982;51.476;7.552;2023-04-15T06:39:40;31.63;;;19.17;;
68940;SDS011;55982;51.476;7.552;2023-04-15T06:42:06;29.52;;;17.83;;
68940;SDS011;55982;51.476;7.552;2023-04-15T06:44:32;30.58;;;18.08;;
68940;SDS011;55982;51.476;7.552;2023-04-15T06:46:57;28.17;;;18.00;;
68940;SDS011;55982;51.476;7.552;2023-04-15T06:49:22;28.20;;;17.67;;
68940;SDS011;55982;51.476;7.552;2023-04-15T06:51:48;27.92;;;18.15;;
68940;SDS011;55982;51.476;7.552;2023-04-15T06:54:13;27.17;;;17.55;;
68940;SDS011;55982;51.476;7.552;2023-04-15T06:56:39;31.38;;;17.80;;
68940;SDS011;55982;51.476;7.552;2023-04-15T06:59:05;28.60;;;18.23;;
68940;SDS011;55982;51.476;7.552;2023-04-15T07:01:31;25.83;;;16.75;;
68940;SDS011;55982;51.476;7.552;2023-04-15T07:03:56;28.45;;;16.45;;
68940;SDS011;55982;51.476;7.552;2023-04-15T07:06:21;30.50;;;16.92;;
68940;SDS011;55982;51.476;7.552;2023-04-15T07:08:47;28.33;;;18.15;;
68940;SDS011;55982;51.476;7.552;2023-04-15T07:11:12;31.52;;;16.92;;
68940;SDS011;55982;51.476;7.552;2023-04-15T07:13:38;27.58;;;17.27;;
68940;SDS011;55982;51.476;7.552;2023-04-15T07:16:03;28.30;;;17.17;;
68940;SDS011;55982;51.476;7.552;2023-04-15T07:18:29;30.77;;;18.50;;
68940;SDS011;55982;51.476;7.552;2023-04-15T07:20:54;28.33;;;17.45;;
68940;SDS011;55982;51.476;7.552;2023-04-15T07:23:20;27.38;;;16.23;;
68940;SDS011;55982;51.476;7.552;2023-04-15T07:25:45;24.70;;;15.98;;
68940;SDS011;55982;51.476;7.552;2023-04-15T07:28:11;24.77;;;16.38;;
68940;SDS011;55982;51.476;7.552;2023-04-15T07:30:36;26.65;;;16.63;;
68940;SDS011;55982;51.476;7.552;2023-04-15T07:33:02;28.85;;;17.48;;
68940;SDS011;55982;51.476;7.552;2023-04-15T07:35:27;25.63;;;16.65;;
68940;SDS011;55982;51.476;7.552;2023-04-15T07:37:53;26.75;;;15.75;;
68940;SDS011;55982;51.476;7.552;2023-04-15T07:40:18;22.58;;;16.00;;
68940;SDS011;55982;51.476;7.552;2023-04-15T07:42:44;22.90;;;15.90;;
68940;SDS011;55982;51.476;7.552;2023-04-15T07:45:09;25.30;;;16.60;;
68940;SDS011;55982;51.476;7.552;2023-04-15T07:47:35;28.80;;;16.10;;
68940;SDS011;55982;51.476;7.552;2023-04-15T07:50:01;25.65;;;16.63;;
68940;SDS011;55982;51.476;7.552;2023-04-15T07:52:26;23.83;;;15.60;;
68940;SDS011;55982;51.476;7.552;2023-04-15T07:54:52;27.75;;;15.75;;
68940;SDS011;55982;51.476;7.552;2023-04-15T07:57:17;24.60;;;15.82;;
68940;SDS011;55982;51.476;7.552;2023-04-15T07:59:42;24.00;;;15.63;;
68940;SDS011;55982;51.476;7.552;2023-04-15T08:02:08;27.02;;;15.35;;
68940;SDS011;55982;51.476;7.552;2023-04-15T08:04:34;22.70;;;14.55;;
68940;SDS011;55982;51.476;7.552;2023-04-15T08:07:00;23.55;;;14.63;;
68940;SDS011;55982;51.476;7.552;2023-04-15T08:09:25;22.65;;;14.20;;
68940;SDS011;55982;51.476;7.552;2023-04-15T08:11:51;21.23;;;13.00;;
68940;SDS011;55982;51.476;7.552;2023-04-15T08:14:17;22.15;;;13.05;;
68940;SDS011;55982;51.476;7.552;2023-04-15T08:16:42;19.38;;;12.55;;
68940;SDS011;55982;51.476;7.552;2023-04-15T08:19:08;18.60;;;11.90;;
68940;SDS011;55982;51.476;7.552;2023-04-15T08:21:33;19.13;;;12.18;;
68940;SDS011;55982;51.476;7.552;2023-04-15T08:23:58;19.52;;;12.93;;
68940;SDS011;55982;51.476;7.552;2023-04-15T08:26:24;15.20;;;11.05;;
68940;SDS011;55982;51.476;7.552;2023-04-15T08:28:49;19.17;;;11.30;;
68940;SDS011;55982;51.476;7.552;2023-04-15T08:31:16;16.33;;;11.25;;
68940;SDS011;55982;51.476;7.552;2023-04-15T08:33:42;16.98;;;11.38;;
68940;SDS011;55982;51.476;7.552;2023-04-15T08:36:08;19.30;;;11.88;;
68940;SDS011;55982;51.476;7.552;2023-04-15T08:38:34;19.40;;;11.57;;
68940;SDS011;55982;51.476;7.552;2023-04-15T08:41:02;17.52;;;10.38;;
68940;SDS011;55982;51.476;7.552;2023-04-15T08:43:34;18.50;;;11.02;;
68940;SDS011;55982;51.476;7.552;2023-04-15T08:46:02;16.42;;;10.50;;
68940;SDS011;55982;51.476;7.552;2023-04-15T08:48:28;16.80;;;10.48;;
68940;SDS011;55982;51.476;7.552;2023-04-15T08:50:57;16.63;;;10.57;;
68940;SDS011;55982;51.476;7.552;2023-04-15T08:53:23;16.90;;;10.73;;
68940;SDS011;55982;51.476;7.552;2023-04-15T08:55:50;15.23;;;9.82;;
68940;SDS011;55982;51.476;7.552;2023-04-15T08:58:16;16.00;;;10.13;;
68940;SDS011;55982;51.476;7.552;2023-04-15T09:00:43;16.70;;;10.45;;
68940;SDS011;55982;51.476;7.552;2023-04-15T09:03:09;16.48;;;10.45;;
68940;SDS011;55982;51.476;7.552;2023-04-15T09:05:36;19.48;;;10.52;;
68940;SDS011;55982;51.476;7.552;2023-04-15T09:08:02;18.90;;;11.25;;
68940;SDS011;55982;51.476;7.552;2023-04-15T09:10:28;16.33;;;10.63;;
68940;SDS011;55982;51.476;7.552;2023-04-15T09:12:55;19.38;;;10.77;;
68940;SDS011;55982;51.476;7.552;2023-04-15T09:15:21;16.27;;;10.52;;
68940;SDS011;55982;51.476;7.552;2023-04-15T09:17:49;15.52;;;10.70;;
68940;SDS011;55982;51.476;7.552;2023-04-15T09:20:15;16.33;;;10.32;;
68940;SDS011;55982;51.476;7.552;2023-04-15T09:22:44;19.77;;;10.80;;
68940;SDS011;55982;51.476;7.552;2023-04-15T09:25:27;15.55;;;10.77;;
68940;SDS011;55982;51.476;7.552;2023-04-15T09:27:56;18.83;;;11.55;;
68940;SDS011;55982;51.476;7.552;2023-04-15T09:30:24;17.48;;;11.65;;
68940;SDS011;55982;51.476;7.552;2023-04-15T09:32:53;18.00;;;11.55;;
68940;SDS011;55982;51.476;7.552;2023-04-15T09:35:21;18.98;;;12.13;;
68940;SDS011;55982;51.476;7.552;2023-04-15T09:37:47;20.98;;;12.77;;
68940;SDS011;55982;51.476;7.552;2023-04-15T09:40:14;17.52;;;12.48;;
68940;SDS011;55982;51.476;7.552;2023-04-15T09:42:52;20.88;;;13.50;;
68940;SDS011;55982;51.476;7.552;2023-04-15T09:45:21;19.63;;;12.95;;
68940;SDS011;55982;51.476;7.552;2023-04-15T09:47:47;20.35;;;13.48;;
68940;SDS011;55982;51.476;7.552;2023-04-15T09:50:12;20.27;;;13.23;;
68940;SDS011;55982;51.476;7.552;2023-04-15T09:52:41;19.08;;;13.27;;
68940;SDS011;55982;51.476;7.552;2023-04-15T09:55:07;19.25;;;12.82;;
68940;SDS011;55982;51.476;7.552;2023-04-15T09:57:34;21.23;;;13.57;;
68940;SDS011;55982;51.476;7.552;2023-04-15T10:00:01;18.40;;;13.48;;
68940;SDS011;55982;51.476;7.552;2023-04-15T10:02:32;22.55;;;13.55;;
68940;SDS011;55982;51.476;7.552;2023-04-15T10:04:57;18.80;;;12.93;;
68940;SDS011;55982;51.476;7.552;2023-04-15T10:07:24;23.25;;;13.48;;
68940;SDS011;55982;51.476;7.552;2023-04-15T10:09:50;23.85;;;13.32;;
68940;SDS011;55982;51.476;7.552;2023-04-15T10:12:16;19.10;;;12.70;;
68940;SDS011;55982;51.476;7.552;2023-04-15T10:14:42;20.25;;;12.70;;
68940;SDS011;55982;51.476;7.552;2023-04-15T10:17:09;20.13;;;11.23;;
68940;SDS011;55982;51.476;7.552;2023-04-15T10:19:36;16.33;;;10.35;;
68940;SDS011;55982;51.476;7.552;2023-04-15T10:22:02;16.92;;;10.35;;
68940;SDS011;55982;51.476;7.552;2023-04-15T10:24:30;13.45;;;9.23;;
68940;SDS011;55982;51.476;7.552;2023-04-15T10:26:56;15.18;;;9.50;;
68940;SDS011;55982;51.476;7.552;2023-04-15T10:29:23;13.68;;;8.57;;
68940;SDS011;55982;51.476;7.552;2023-04-15T10:31:51;13.57;;;9.23;;
68940;SDS011;55982;51.476;7.552;2023-04-15T10:34:18;14.40;;;8.80;;
68940;SDS011;55982;51.476;7.552;2023-04-15T10:36:45;14.48;;;8.88;;
68940;SDS011;55982;51.476;7.552;2023-04-15T10:42:05;14.75;;;9.30;;
68940;SDS011;55982;51.476;7.552;2023-04-15T10:44:32;14.27;;;9.30;;
68940;SDS011;55982;51.476;7.552;2023-04-15T10:46:57;16.63;;;9.70;;
68940;SDS011;55982;51.476;7.552;2023-04-15T10:49:24;19.67;;;10.73;;
68940;SDS011;55982;51.476;7.552;2023-04-15T10:51:50;17.30;;;10.20;;
68940;SDS011;55982;51.476;7.552;2023-04-15T10:56:50;15.68;;;10.13;;
68940;SDS011;55982;51.476;7.552;2023-04-15T10:59:16;16.40;;;9.45;;
68940;SDS011;55982;51.476;7.552;2023-04-15T11:07:34;24.48;;;14.38;;
68940;SDS011;55982;51.476;7.552;2023-04-15T11:10:03;23.80;;;14.85;;
68940;SDS011;55982;51.476;7.552;2023-04-15T11:12:49;27.95;;;15.00;;
68940;SDS011;55982;51.476;7.552;2023-04-15T11:15:32;24.77;;;14.52;;
68940;SDS011;55982;51.476;7.552;2023-04-15T11:17:59;22.38;;;13.02;;
68940;SDS011;55982;51.476;7.552;2023-04-15T11:20:37;20.10;;;11.68;;
68940;SDS011;55982;51.476;7.552;2023-04-15T11:23:03;17.98;;;10.90;;
68940;SDS011;55982;51.476;7.552;2023-04-15T11:25:30;16.17;;;9.73;;
68940;SDS011;55982;51.476;7.552;2023-04-15T11:27:57;15.25;;;9.18;;
68940;SDS011;55982;51.476;7.552;2023-04-15T11:30:27;15.82;;;9.63;;
68940;SDS011;55982;51.476;7.552;2023-04-15T11:32:56;16.67;;;10.60;;
68940;SDS011;55982;51.476;7.552;2023-04-15T11:35:23;24.00;;;12.70;;
68940;SDS011;55982;51.476;7.552;2023-04-15T11:37:48;20.00;;;11.95;;
68940;SDS011;55982;51.476;7.552;2023-04-15T11:40:14;19.92;;;11.38;;
68940;SDS011;55982;51.476;7.552;2023-04-15T11:42:44;24.23;;;13.38;;
68940;SDS011;55982;51.476;7.552;2023-04-15T11:45:14;21.08;;;11.25;;
68940;SDS011;55982;51.476;7.552;2023-04-15T11:47:41;21.55;;;12.10;;
68940;SDS011;55982;51.476;7.552;2023-04-15T11:50:21;22.00;;;12.38;;
68940;SDS011;55982;51.476;7.552;2023-04-15T11:55:19;21.65;;;12.20;;
68940;SDS011;55982;51.476;7.552;2023-04-15T11:57:45;19.83;;;11.93;;
68940;SDS011;55982;51.476;7.552;2023-04-15T12:00:11;19.02;;;11.32;;
68940;SDS011;55982;51.476;7.552;2023-04-15T12:02:37;21.08;;;11.07;;
68940;SDS011;55982;51.476;7.552;2023-04-15T12:05:21;17.80;;;11.10;;
68940;SDS011;55982;51.476;7.552;2023-04-15T12:07:59;20.08;;;11.93;;
68940;SDS011;55982;51.476;7.552;2023-04-15T12:10:24;20.27;;;11.70;;
68940;SDS011;55982;51.476;7.552;2023-04-15T12:12:51;19.08;;;12.25;;
68940;SDS011;55982;51.476;7.552;2023-04-15T12:15:17;22.30;;;12.73;;
68940;SDS011;55982;51.476;7.552;2023-04-15T12:17:46;22.40;;;13.40;;
68940;SDS011;55982;51.476;7.552;2023-04-15T12:20:12;21.10;;;12.80;;
68940;SDS011;55982;51.476;7.552;2023-04-15T12:22:37;24.33;;;14.23;;
68940;SDS011;55982;51.476;7.552;2023-04-15T12:25:03;23.17;;;13.90;;
68940;SDS011;55982;51.476;7.552;2023-04-15T12:27:30;21.25;;;12.77;;
68940;SDS011;55982;51.476;7.552;2023-04-15T12:30:02;23.10;;;14.10;;
68940;SDS011;55982;51.476;7.552;2023-04-15T12:32:29;23.60;;;14.18;;
68940;SDS011;55982;51.476;7.552;2023-04-15T12:34:59;20.98;;;13.18;;
68940;SDS011;55982;51.476;7.552;2023-04-15T12:37:25;22.77;;;13.15;;
68940;SDS011;55982;51.476;7.552;2023-04-15T12:39:51;21.30;;;12.18;;
68940;SDS011;55982;51.476;7.552;2023-04-15T12:42:18;23.80;;;13.90;;
68940;SDS011;55982;51.476;7.552;2023-04-15T12:44:44;24.85;;;14.23;;
68940;SDS011;55982;51.476;7.552;2023-04-15T12:47:11;23.25;;;14.43;;
68940;SDS011;55982;51.476;7.552;2023-04-15T12:49:37;41.00;;;20.75;;
68940;SDS011;55982;51.476;7.552;2023-04-15T12:52:03;27.08;;;17.42;;
68940;SDS011;55982;51.476;7.552;2023-04-15T12:54:29;22.58;;;14.00;;
68940;SDS011;55982;51.476;7.552;2023-04-15T12:56:56;42.65;;;28.60;;
68940;SDS011;55982;51.476;7.552;2023-04-15T12:59:22;24.85;;;17.20;;
68940;SDS011;55982;51.476;7.552;2023-04-15T13:01:48;23.90;;;15.48;;
68940;SDS011;55982;51.476;7.552;2023-04-15T13:04:14;30.02;;;18.40;;
68940;SDS011;55982;51.476;7.552;2023-04-15T13:06:41;53.72;;;36.33;;
68940;SDS011;55982;51.476;7.552;2023-04-15T13:09:06;20.42;;;12.57;;
68940;SDS011;55982;51.476;7.552;2023-04-15T13:11:32;22.98;;;12.98;;
68940;SDS011;55982;51.476;7.552;2023-04-15T13:13:59;22.38;;;13.35;;
68940;SDS011;55982;51.476;7.552;2023-04-15T13:16:25;22.52;;;13.60;;
68940;SDS011;55982;51.476;7.552;2023-04-15T13:18:51;20.73;;;13.52;;
68940;SDS011;55982;51.476;7.552;2023-04-15T13:21:16;21.83;;;14.07;;
68940;SDS011;55982;51.476;7.552;2023-04-15T13:23:42;22.35;;;13.13;;
68940;SDS011;55982;51.476;7.552;2023-04-15T13:26:08;22.67;;;13.88;;
68940;SDS011;55982;51.476;7.552;2023-04-15T13:28:33;21.92;;;14.32;;
68940;SDS011;55982;51.476;7.552;2023-04-15T13:30:59;26.02;;;16.13;;
68940;SDS011;55982;51.476;7.552;2023-04-15T13:33:25;28.95;;;18.77;;
68940;SDS011;55982;51.476;7.552;2023-04-15T13:35:51;24.73;;;17.88;;
68940;SDS011;55982;51.476;7.552;2023-04-15T13:38:16;21.35;;;13.40;;
68940;SDS011;55982;51.476;7.552;2023-04-15T13:40:42;19.65;;;12.20;;
68940;SDS011;55982;51.476;7.552;2023-04-15T13:43:07;19.45;;;12.70;;
68940;SDS011;55982;51.476;7.552;2023-04-15T13:45:33;19.20;;;12.20;;
68940;SDS011;55982;51.476;7.552;2023-04-15T13:47:58;17.80;;;11.23;;
68940;SDS011;55982;51.476;7.552;2023-04-15T13:50:23;23.35;;;15.45;;
68940;SDS011;55982;51.476;7.552;2023-04-15T13:52:49;20.77;;;12.57;;
68940;SDS011;55982;51.476;7.552;2023-04-15T13:55:14;20.77;;;11.18;;
68940;SDS011;55982;51.476;7.552;2023-04-15T13:57:39;17.27;;;10.80;;
68940;SDS011;55982;51.476;7.552;2023-04-15T14:00:06;16.70;;;10.95;;
68940;SDS011;55982;51.476;7.552;2023-04-15T14:02:32;21.48;;;11.90;;
68940;SDS011;55982;51.476;7.552;2023-04-15T14:04:57;20.30;;;11.50;;
68940;SDS011;55982;51.476;7.552;2023-04-15T14:07:23;17.55;;;10.82;;
68940;SDS011;55982;51.476;7.552;2023-04-15T14:09:48;16.90;;;10.50;;
68940;SDS011;55982;51.476;7.552;2023-04-15T14:12:14;16.38;;;11.00;;
68940;SDS011;55982;51.476;7.552;2023-04-15T14:14:39;16.90;;;10.60;;
68940;SDS011;55982;51.476;7.552;2023-04-15T14:17:05;17.38;;;10.75;;
68940;SDS011;55982;51.476;7.552;2023-04-15T14:19:31;19.70;;;11.63;;
68940;SDS011;55982;51.476;7.552;2023-04-15T14:21:57;18.77;;;10.13;;
68940;SDS011;55982;51.476;7.552;2023-04-15T14:24:23;12.70;;;8.45;;
68940;SDS011;55982;51.476;7.552;2023-04-15T14:26:48;29.83;;;16.17;;
68940;SDS011;55982;51.476;7.552;2023-04-15T14:29:13;18.02;;;10.85;;
68940;SDS011;55982;51.476;7.552;2023-04-15T14:31:39;15.02;;;9.32;;